sensor_id;sensor_type;location;lat;lon;timestamp;pressure;altitude;pressure_sealevel;temperature;humidity
14295;BME280;7231;59.370;18.016;2023-12-22T00:00:05;96146.66;;;1.33;100.00
14295;BME280;7231;59.370;18.016;2023-12-22T00:02:34;96138.97;;;1.29;100.00
14295;BME280;7231;59.370;18.016;2023-12-22T00:05:03;96135.50;;;1.32;100.00
14295;BME280;7231;59.370;18.016;2023-12-22T00:07:31;96150.13;;;1.32;100.00
14295;BME280;7231;59.370;18.016;2023-12-22T00:09:59;96129.50;;;1.30;100.00
14295;BME280;7231;59.370;18.016;2023-12-22T00:12:27;96137.25;;;1.30;100.00
14295;BME280;7231;59.370;18.016;2023-12-22T00:14:56;96114.97;;;1.21;100.00
14295;BME280;7231;59.370;18.016;2023-12-22T00:17:25;96146.69;;;1.31;100.00
14295;BME280;7231;59.370;18.016;2023-12-22T00:19:53;96139.81;;;1.32;100.00
14295;BME280;7231;59.370;18.016;2023-12-22T00:22:23;96140.66;;;1.32;100.00
14295;BME280;7231;59.370;18.016;2023-12-22T00:24:51;96142.38;;;1.33;100.00
14295;BME280;7231;59.370;18.016;2023-12-22T00:27:20;96138.06;;;1.32;100.00
14295;BME280;7231;59.370;18.016;2023-12-22T00:29:48;96138.06;;;1.34;100.00
14295;BME280;7231;59.370;18.016;2023-12-22T00:32:16;96124.31;;;1.33;100.00
14295;BME280;7231;59.370;18.016;2023-12-22T00:34:45;96128.59;;;1.34;100.00
14295;BME280;7231;59.370;18.016;2023-12-22T00:37:13;96146.66;;;1.34;100.00
14295;BME280;7231;59.370;18.016;2023-12-22T00:39:42;96131.16;;;1.34;100.00
14295;BME280;7231;59.370;18.016;2023-12-22T00:42:10;96142.34;;;1.35;100.00
14295;BME280;7231;59.370;18.016;2023-12-22T00:44:38;96144.06;;;1.34;100.00
14295;BME280;7231;59.370;18.016;2023-12-22T00:47:07;96139.78;;;1.33;100.00
14295;BME280;7231;59.370;18.016;2023-12-22T00:49:35;96138.06;;;1.32;100.00
14295;BME280;7231;59.370;18.016;2023-12-22T00:52:05;96139.81;;;1.30;100.00
14295;BME280;7231;59.370;18.016;2023-12-22T00:54:33;96118.44;;;1.20;100.00
14295;BME280;7231;59.370;18.016;2023-12-22T00:57:01;96144.97;;;1.32;100.00
14295;BME280;7231;59.370;18.016;2023-12-22T00:59:29;96152.72;;;1.30;100.00
14295;BME280;7231;59.370;18.016;2023-12-22T01:01:57;96142.41;;;1.28;100.00
14295;BME280;7231;59.370;18.016;2023-12-22T01:04:26;96132.97;;;1.26;100.00
14295;BME280;7231;59.370;18.016;2023-12-22T01:06:54;96152.75;;;1.27;100.00
14295;BME280;7231;59.370;18.016;2023-12-22T01:09:23;96150.16;;;1.27;100.00
14295;BME280;7231;59.370;18.016;2023-12-22T01:11:51;96144.19;;;1.22;100.00
14295;BME280;7231;59.370;18.016;2023-12-22T01:14:20;96157.91;;;1.27;100.00
14295;BME280;7231;59.370;18.016;2023-12-22T01:16:48;96157.03;;;1.28;100.00
14295;BME280;7231;59.370;18.016;2023-12-22T01:19:16;96152.78;;;1.24;100.00
14295;BME280;7231;59.370;18.016;2023-12-22T01:21:44;96154.47;;;1.28;100.00
14295;BME280;7231;59.370;18.016;2023-12-22T01:24:15;96167.34;;;1.28;100.00
14295;BME280;7231;59.370;18.016;2023-12-22T01:26:45;96145.88;;;1.27;100.00
14295;BME280;7231;59.370;18.016;2023-12-22T01:29:13;96153.59;;;1.29;100.00
14295;BME280;7231;59.370;18.016;2023-12-22T01:31:41;96147.56;;;1.28;100.00
14295;BME280;7231;59.370;18.016;2023-12-22T01:34:09;96151.84;;;1.31;100.00
14295;BME280;7231;59.370;18.016;2023-12-22T01:36:38;96153.56;;;1.30;100.00
14295;BME280;7231;59.370;18.016;2023-12-22T01:39:06;96138.97;;;1.29;100.00
14295;BME280;7231;59.370;18.016;2023-12-22T01:41:35;96152.72;;;1.30;100.00
14295;BME280;7231;59.370;18.016;2023-12-22T01:44:05;96152.72;;;1.28;100.00
14295;BME280;7231;59.370;18.016;2023-12-22T01:46:33;96104.84;;;1.06;100.00
14295;BME280;7231;59.370;18.016;2023-12-22T01:49:02;96142.41;;;1.30;100.00
14295;BME280;7231;59.370;18.016;2023-12-22T01:51:32;96149.28;;;1.29;100.00
14295;BME280;7231;59.370;18.016;2023-12-22T01:54:00;96144.97;;;1.30;100.00
14295;BME280;7231;59.370;18.016;2023-12-22T01:56:29;96153.56;;;1.30;100.00
14295;BME280;7231;59.370;18.016;2023-12-22T01:58:59;96106.56;;;1.04;100.00
14295;BME280;7231;59.370;18.016;2023-12-22T02:01:29;96148.44;;;1.29;100.00
14295;BME280;7231;59.370;18.016;2023-12-22T02:03:59;96156.16;;;1.29;100.00
14295;BME280;7231;59.370;18.016;2023-12-22T02:06:29;96143.34;;;1.23;100.00
14295;BME280;7231;59.370;18.016;2023-12-22T02:08:58;96134.78;;;1.18;100.00
14295;BME280;7231;59.370;18.016;2023-12-22T02:11:26;96157.13;;;1.20;100.00
14295;BME280;7231;59.370;18.016;2023-12-22T02:13:54;96149.41;;;1.17;100.00
14295;BME280;7231;59.370;18.016;2023-12-22T02:16:41;96111.84;;;0.93;100.00
14295;BME280;7231;59.370;18.016;2023-12-22T02:19:25;96139.13;;;1.14;100.00
14295;BME280;7231;59.370;18.016;2023-12-22T02:22:02;96157.25;;;1.07;100.00
14295;BME280;7231;59.370;18.016;2023-12-22T02:24:37;96157.19;;;1.13;100.00
14295;BME280;7231;59.370;18.016;2023-12-22T02:27:06;96145.22;;;1.06;100.00
14295;BME280;7231;59.370;18.016;2023-12-22T02:29:43;96150.31;;;1.12;100.00
14295;BME280;7231;59.370;18.016;2023-12-22T02:32:19;96144.31;;;1.11;100.00
14295;BME280;7231;59.370;18.016;2023-12-22T02:34:52;96108.50;;;0.84;100.00
14295;BME280;7231;59.370;18.016;2023-12-22T02:37:22;96156.38;;;1.09;100.00
14295;BME280;7231;59.370;18.016;2023-12-22T02:39:52;96158.94;;;1.11;100.00
14295;BME280;7231;59.370;18.016;2023-12-22T02:42:21;96151.22;;;1.08;100.00
14295;BME280;7231;59.370;18.016;2023-12-22T02:44:57;96154.63;;;1.11;100.00
14295;BME280;7231;59.370;18.016;2023-12-22T02:47:25;96139.16;;;1.11;100.00
14295;BME280;7231;59.370;18.016;2023-12-22T02:49:55;96154.66;;;1.10;100.00
14295;BME280;7231;59.370;18.016;2023-12-22T02:52:23;96121.38;;;0.85;100.00
14295;BME280;7231;59.370;18.016;2023-12-22T02:54:53;96150.34;;;1.09;100.00
14295;BME280;7231;59.370;18.016;2023-12-22T02:57:21;96148.66;;;1.08;100.00
14295;BME280;7231;59.370;18.016;2023-12-22T02:59:49;96153.81;;;1.08;100.00
14295;BME280;7231;59.370;18.016;2023-12-22T03:02:17;96165.81;;;1.12;100.00
14295;BME280;7231;59.370;18.016;2023-12-22T03:04:45;96158.91;;;1.12;100.00
14295;BME280;7231;59.370;18.016;2023-12-22T03:07:14;96165.78;;;1.13;100.00
14295;BME280;7231;59.370;18.016;2023-12-22T03:09:43;96173.50;;;1.15;100.00
14295;BME280;7231;59.370;18.016;2023-12-22T03:12:12;96176.94;;;1.15;100.00
14295;BME280;7231;59.370;18.016;2023-12-22T03:14:41;96178.69;;;1.13;100.00
14295;BME280;7231;59.370;18.016;2023-12-22T03:17:09;96182.97;;;1.13;100.00
14295;BME280;7231;59.370;18.016;2023-12-22T03:19:38;96185.56;;;1.13;100.00
14295;BME280;7231;59.370;18.016;2023-12-22T03:22:07;96172.69;;;1.10;100.00
14295;BME280;7231;59.370;18.016;2023-12-22T03:24:35;96189.00;;;1.12;100.00
14295;BME280;7231;59.370;18.016;2023-12-22T03:27:04;96179.59;;;1.08;100.00
14295;BME280;7231;59.370;18.016;2023-12-22T03:29:33;96191.63;;;1.09;100.00
14295;BME280;7231;59.370;18.016;2023-12-22T03:32:01;96189.94;;;1.05;100.00
14295;BME280;7231;59.370;18.016;2023-12-22T03:34:30;96190.81;;;1.02;100.00
14295;BME280;7231;59.370;18.016;2023-12-22T03:36:58;96209.75;;;1.01;100.00
14295;BME280;7231;59.370;18.016;2023-12-22T03:39:26;96187.47;;;0.94;100.00
14295;BME280;7231;59.370;18.016;2023-12-22T03:41:54;96194.28;;;0.98;100.00
14295;BME280;7231;59.370;18.016;2023-12-22T03:44:22;96196.91;;;0.93;100.00
14295;BME280;7231;59.370;18.016;2023-12-22T03:46:53;96191.75;;;0.93;100.00
14295;BME280;7231;59.370;18.016;2023-12-22T03:49:22;96195.22;;;0.91;100.00
14295;BME280;7231;59.370;18.016;2023-12-22T03:51:51;96196.94;;;0.90;100.00
14295;BME280;7231;59.370;18.016;2023-12-22T03:54:19;96165.34;;;0.67;100.00
14295;BME280;7231;59.370;18.016;2023-12-22T03:56:47;96209.84;;;0.89;100.00
14295;BME280;7231;59.370;18.016;2023-12-22T03:59:15;96209.00;;;0.88;100.00
14295;BME280;7231;59.370;18.016;2023-12-22T04:01:50;96200.47;;;0.79;100.00
14295;BME280;7231;59.370;18.016;2023-12-22T04:04:20;96212.44;;;0.87;100.00
14295;BME280;7231;59.370;18.016;2023-12-22T04:06:49;96217.63;;;0.84;100.00
14295;BME280;7231;59.370;18.016;2023-12-22T04:09:18;96186.03;;;0.59;100.00
14295;BME280;7231;59.370;18.016;2023-12-22T04:11:46;96221.94;;;0.82;100.00
14295;BME280;7231;59.370;18.016;2023-12-22T04:14:14;96219.34;;;0.82;100.00
14295;BME280;7231;59.370;18.016;2023-12-22T04:16:43;96230.53;;;0.80;100.00
14295;BME280;7231;59.370;18.016;2023-12-22T04:19:12;96232.25;;;0.81;100.00
14295;BME280;7231;59.370;18.016;2023-12-22T04:21:42;96234.81;;;0.81;100.00
14295;BME280;7231;59.370;18.016;2023-12-22T04:24:10;96226.25;;;0.79;100.00
14295;BME280;7231;59.370;18.016;2023-12-22T04:26:38;96239.13;;;0.79;100.00
14295;BME280;7231;59.370;18.016;2023-12-22T04:29:06;96248.59;;;0.78;100.00
14295;BME280;7231;59.370;18.016;2023-12-22T04:31:34;96246.03;;;0.77;100.00
14295;BME280;7231;59.370;18.016;2023-12-22T04:34:02;96261.50;;;0.77;100.00
14295;BME280;7231;59.370;18.016;2023-12-22T04:36:30;96248.66;;;0.71;100.00
14295;BME280;7231;59.370;18.016;2023-12-22T04:39:00;96265.81;;;0.73;100.00
14295;BME280;7231;59.370;18.016;2023-12-22T04:41:28;96265.81;;;0.73;100.00
14295;BME280;7231;59.370;18.016;2023-12-22T04:43:56;96273.53;;;0.73;100.00
14295;BME280;7231;59.370;18.016;2023-12-22T04:46:24;96283.00;;;0.73;100.00
14295;BME280;7231;59.370;18.016;2023-12-22T04:48:52;96277.84;;;0.71;100.00
14295;BME280;7231;59.370;18.016;2023-12-22T04:51:21;96277.03;;;0.66;100.00
14295;BME280;7231;59.370;18.016;2023-12-22T04:53:49;96286.50;;;0.64;100.00
14295;BME280;7231;59.370;18.016;2023-12-22T04:56:19;96293.31;;;0.71;100.00
14295;BME280;7231;59.370;18.016;2023-12-22T04:58:47;96293.31;;;0.71;100.00
14295;BME280;7231;59.370;18.016;2023-12-22T05:01:15;96253.09;;;0.46;100.00
14295;BME280;7231;59.370;18.016;2023-12-22T05:03:44;96294.19;;;0.70;100.00
14295;BME280;7231;59.370;18.016;2023-12-22T05:06:12;96302.78;;;0.69;100.00
14295;BME280;7231;59.370;18.016;2023-12-22T05:08:40;96306.22;;;0.70;100.00
14295;BME280;7231;59.370;18.016;2023-12-22T05:11:09;96301.91;;;0.70;100.00
14295;BME280;7231;59.370;18.016;2023-12-22T05:13:38;96276.31;;;0.44;100.00
14295;BME280;7231;59.370;18.016;2023-12-22T05:16:07;96324.22;;;0.73;100.00
14295;BME280;7231;59.370;18.016;2023-12-22T05:18:35;96313.91;;;0.74;100.00
14295;BME280;7231;59.370;18.016;2023-12-22T05:21:03;96320.78;;;0.72;100.00
14295;BME280;7231;59.370;18.016;2023-12-22T05:23:32;96325.94;;;0.72;100.00
14295;BME280;7231;59.370;18.016;2023-12-22T05:26:00;96333.69;;;0.74;100.00
14295;BME280;7231;59.370;18.016;2023-12-22T05:28:28;96337.94;;;0.76;100.00
14295;BME280;7231;59.370;18.016;2023-12-22T05:30:58;96285.75;;;0.44;100.00
14295;BME280;7231;59.370;18.016;2023-12-22T05:33:26;96331.97;;;0.73;100.00
14295;BME280;7231;59.370;18.016;2023-12-22T05:35:54;96331.97;;;0.73;100.00
14295;BME280;7231;59.370;18.016;2023-12-22T05:38:22;96346.53;;;0.78;100.00
14295;BME280;7231;59.370;18.016;2023-12-22T05:40:50;96347.38;;;0.79;100.00
14295;BME280;7231;59.370;18.016;2023-12-22T05:43:18;96361.13;;;0.79;100.00
14295;BME280;7231;59.370;18.016;2023-12-22T05:45:47;96360.31;;;0.74;100.00
14295;BME280;7231;59.370;18.016;2023-12-22T05:48:16;96375.72;;;0.82;100.00
14295;BME280;7231;59.370;18.016;2023-12-22T05:50:44;96373.13;;;0.83;100.00
14295;BME280;7231;59.370;18.016;2023-12-22T05:53:12;96382.59;;;0.84;100.00
14295;BME280;7231;59.370;18.016;2023-12-22T05:55:41;96386.88;;;0.85;100.00
14295;BME280;7231;59.370;18.016;2023-12-22T05:58:08;96387.72;;;0.86;100.00
14295;BME280;7231;59.370;18.016;2023-12-22T06:00:37;96396.31;;;0.86;100.00
14295;BME280;7231;59.370;18.016;2023-12-22T06:03:05;96405.78;;;0.87;100.00
14295;BME280;7231;59.370;18.016;2023-12-22T06:05:34;96400.63;;;0.87;100.00
14295;BME280;7231;59.370;18.016;2023-12-22T06:08:03;96389.44;;;0.85;100.00
14295;BME280;7231;59.370;18.016;2023-12-22T06:10:31;96411.78;;;0.89;100.00
14295;BME280;7231;59.370;18.016;2023-12-22T06:13:00;96414.34;;;0.91;100.00
14295;BME280;7231;59.370;18.016;2023-12-22T06:15:30;96386.06;;;0.79;100.00
14295;BME280;7231;59.370;18.016;2023-12-22T06:17:58;96428.09;;;0.91;100.00
14295;BME280;7231;59.370;18.016;2023-12-22T06:20:26;96413.53;;;0.84;100.00
14295;BME280;7231;59.370;18.016;2023-12-22T06:22:56;96423.78;;;0.92;100.00
14295;BME280;7231;59.370;18.016;2023-12-22T06:25:24;96430.66;;;0.93;100.00
14295;BME280;7231;59.370;18.016;2023-12-22T06:27:52;96436.69;;;0.93;100.00
14295;BME280;7231;59.370;18.016;2023-12-22T06:30:21;96440.97;;;0.94;100.00
14295;BME280;7231;59.370;18.016;2023-12-22T06:32:49;96448.69;;;0.94;100.00
14295;BME280;7231;59.370;18.016;2023-12-22T06:35:17;96453.88;;;0.91;100.00
14295;BME280;7231;59.370;18.016;2023-12-22T06:37:50;96443.59;;;0.81;100.00
14295;BME280;7231;59.370;18.016;2023-12-22T06:40:20;96462.47;;;0.89;100.00
14295;BME280;7231;59.370;18.016;2023-12-22T06:42:49;96459.94;;;0.81;100.00
14295;BME280;7231;59.370;18.016;2023-12-22T06:45:17;96471.94;;;0.88;100.00
14295;BME280;7231;59.370;18.016;2023-12-22T06:47:45;96460.78;;;0.80;100.00
14295;BME280;7231;59.370;18.016;2023-12-22T06:50:13;96484.81;;;0.88;100.00
14295;BME280;7231;59.370;18.016;2023-12-22T06:52:42;96479.66;;;0.87;100.00
14295;BME280;7231;59.370;18.016;2023-12-22T06:55:10;96481.38;;;0.88;100.00
14295;BME280;7231;59.370;18.016;2023-12-22T06:57:40;96447.13;;;0.61;100.00
14295;BME280;7231;59.370;18.016;2023-12-22T07:00:10;96494.28;;;0.89;100.00
14295;BME280;7231;59.370;18.016;2023-12-22T07:02:38;96497.72;;;0.84;100.00
14295;BME280;7231;59.370;18.016;2023-12-22T07:05:34;96514.03;;;0.87;100.00
14295;BME280;7231;59.370;18.016;2023-12-22T07:08:05;96510.63;;;0.82;100.00
14295;BME280;7231;59.370;18.016;2023-12-22T07:10:34;96520.09;;;0.77;100.00
14295;BME280;7231;59.370;18.016;2023-12-22T07:13:03;96524.41;;;0.75;100.00
14295;BME280;7231;59.370;18.016;2023-12-22T07:15:32;96512.41;;;0.62;100.00
14295;BME280;7231;59.370;18.016;2023-12-22T07:18:00;96537.28;;;0.69;100.00
14295;BME280;7231;59.370;18.016;2023-12-22T07:20:29;96546.75;;;0.70;100.00
14295;BME280;7231;59.370;18.016;2023-12-22T07:22:57;96493.56;;;0.40;100.00
14295;BME280;7231;59.370;18.016;2023-12-22T07:25:25;96556.19;;;0.71;100.00
14295;BME280;7231;59.370;18.016;2023-12-22T07:27:53;96559.63;;;0.72;100.00
14295;BME280;7231;59.370;18.016;2023-12-22T07:30:22;96561.34;;;0.74;100.00
14295;BME280;7231;59.370;18.016;2023-12-22T07:32:51;96573.38;;;0.75;100.00
14295;BME280;7231;59.370;18.016;2023-12-22T07:35:20;96575.94;;;0.77;100.00
14295;BME280;7231;59.370;18.016;2023-12-22T07:37:49;96583.66;;;0.77;100.00
14295;BME280;7231;59.370;18.016;2023-12-22T07:40:17;96557.06;;;0.67;100.00
14295;BME280;7231;59.370;18.016;2023-12-22T07:42:46;96578.53;;;0.77;100.00
14295;BME280;7231;59.370;18.016;2023-12-22T07:45:16;96569.94;;;0.70;100.00
14295;BME280;7231;59.370;18.016;2023-12-22T07:47:46;96581.09;;;0.77;100.00
14295;BME280;7231;59.370;18.016;2023-12-22T07:50:15;96588.81;;;0.78;100.00
14295;BME280;7231;59.370;18.016;2023-12-22T07:52:45;96594.84;;;0.77;100.00
14295;BME280;7231;59.370;18.016;2023-12-22T07:55:13;96602.56;;;0.77;100.00
14295;BME280;7231;59.370;18.016;2023-12-22T07:57:42;96600.84;;;0.76;100.00
14295;BME280;7231;59.370;18.016;2023-12-22T08:00:10;96607.72;;;0.74;100.00
14295;BME280;7231;59.370;18.016;2023-12-22T08:02:39;96601.72;;;0.69;100.00
14295;BME280;7231;59.370;18.016;2023-12-22T08:05:09;96615.47;;;0.76;100.00
14295;BME280;7231;59.370;18.016;2023-12-22T08:07:37;96624.91;;;0.77;100.00
14295;BME280;7231;59.370;18.016;2023-12-22T08:10:06;96631.78;;;0.76;100.00
14295;BME280;7231;59.370;18.016;2023-12-22T08:12:34;96628.34;;;0.76;100.00
14295;BME280;7231;59.370;18.016;2023-12-22T08:15:02;96624.06;;;0.70;100.00
14295;BME280;7231;59.370;18.016;2023-12-22T08:17:31;96636.09;;;0.77;100.00
14295;BME280;7231;59.370;18.016;2023-12-22T08:20:00;96636.94;;;0.76;100.00
14295;BME280;7231;59.370;18.016;2023-12-22T08:22:39;96648.13;;;0.77;100.00
14295;BME280;7231;59.370;18.016;2023-12-22T08:25:12;96640.38;;;0.78;100.00
14295;BME280;7231;59.370;18.016;2023-12-22T08:27:40;96639.50;;;0.79;100.00
14295;BME280;7231;59.370;18.016;2023-12-22T08:30:10;96643.81;;;0.74;100.00
14295;BME280;7231;59.370;18.016;2023-12-22T08:32:38;96650.69;;;0.80;100.00
14295;BME280;7231;59.370;18.016;2023-12-22T08:35:07;96642.97;;;0.77;100.00
14295;BME280;7231;59.370;18.016;2023-12-22T08:37:35;96648.97;;;0.80;100.00
14295;BME280;7231;59.370;18.016;2023-12-22T08:40:07;96651.53;;;0.79;100.00
14295;BME280;7231;59.370;18.016;2023-12-22T08:42:35;96653.28;;;0.78;100.00
14295;BME280;7231;59.370;18.016;2023-12-22T08:45:04;96656.69;;;0.80;100.00
14295;BME280;7231;59.370;18.016;2023-12-22T08:47:33;96658.41;;;0.81;100.00
14295;BME280;7231;59.370;18.016;2023-12-22T08:50:01;96659.28;;;0.83;100.00
14295;BME280;7231;59.370;18.016;2023-12-22T08:52:31;96642.97;;;0.69;100.00
14295;BME280;7231;59.370;18.016;2023-12-22T08:55:00;96666.16;;;0.83;100.00
14295;BME280;7231;59.370;18.016;2023-12-22T08:57:30;96672.16;;;0.83;100.00
14295;BME280;7231;59.370;18.016;2023-12-22T08:59:58;96676.47;;;0.84;100.00
14295;BME280;7231;59.370;18.016;2023-12-22T09:02:26;96667.88;;;0.82;100.00
14295;BME280;7231;59.370;18.016;2023-12-22T09:04:54;96678.19;;;0.82;100.00
14295;BME280;7231;59.370;18.016;2023-12-22T09:07:22;96558.81;;;0.10;100.00
14295;BME280;7231;59.370;18.016;2023-12-22T09:09:51;96565.69;;;0.16;100.00
14295;BME280;7231;59.370;18.016;2023-12-22T09:12:19;96679.03;;;0.81;100.00
14295;BME280;7231;59.370;18.016;2023-12-22T09:14:49;96680.75;;;0.81;100.00
14295;BME280;7231;59.370;18.016;2023-12-22T09:17:18;96685.06;;;0.82;100.00
14295;BME280;7231;59.370;18.016;2023-12-22T09:19:46;96671.31;;;0.78;100.00
14295;BME280;7231;59.370;18.016;2023-12-22T09:22:14;96669.59;;;0.80;100.00
14295;BME280;7231;59.370;18.016;2023-12-22T09:24:43;96685.91;;;0.82;100.00
14295;BME280;7231;59.370;18.016;2023-12-22T09:27:12;96680.75;;;0.81;100.00
14295;BME280;7231;59.370;18.016;2023-12-22T09:29:40;96687.63;;;0.82;100.00
14295;BME280;7231;59.370;18.016;2023-12-22T09:32:10;96688.50;;;0.84;100.00
14295;BME280;7231;59.370;18.016;2023-12-22T09:34:38;96691.06;;;0.85;100.00
14295;BME280;7231;59.370;18.016;2023-12-22T09:37:07;96692.78;;;0.88;100.00
14295;BME280;7231;59.370;18.016;2023-12-22T09:39:35;96691.06;;;0.84;100.00
14295;BME280;7231;59.370;18.016;2023-12-22T09:42:05;96690.22;;;0.89;100.00
14295;BME280;7231;59.370;18.016;2023-12-22T09:44:36;96699.66;;;0.89;100.00
14295;BME280;7231;59.370;18.016;2023-12-22T09:47:05;96701.38;;;0.87;100.00
14295;BME280;7231;59.370;18.016;2023-12-22T09:49:37;96697.94;;;0.88;100.00
14295;BME280;7231;59.370;18.016;2023-12-22T09:52:07;96697.94;;;0.89;100.00
14295;BME280;7231;59.370;18.016;2023-12-22T09:54:37;96704.81;;;0.92;100.00
14295;BME280;7231;59.370;18.016;2023-12-22T09:57:05;96702.25;;;0.90;100.00
14295;BME280;7231;59.370;18.016;2023-12-22T09:59:48;96662.72;;;0.65;100.00
14295;BME280;7231;59.370;18.016;2023-12-22T10:02:19;96707.41;;;0.90;100.00
14295;BME280;7231;59.370;18.016;2023-12-22T10:04:49;96709.97;;;0.87;100.00
14295;BME280;7231;59.370;18.016;2023-12-22T10:07:18;96709.13;;;0.90;100.00
14295;BME280;7231;59.370;18.016;2023-12-22T10:09:48;96716.00;;;0.89;100.00
14295;BME280;7231;59.370;18.016;2023-12-22T10:12:19;96714.28;;;0.90;100.00
14295;BME280;7231;59.370;18.016;2023-12-22T10:14:48;96717.72;;;0.89;100.00
14295;BME280;7231;59.370;18.016;2023-12-22T10:17:16;96710.84;;;0.89;100.00
14295;BME280;7231;59.370;18.016;2023-12-22T10:19:44;96643.81;;;0.45;100.00
14295;BME280;7231;59.370;18.016;2023-12-22T10:22:14;96721.16;;;0.89;100.00
14295;BME280;7231;59.370;18.016;2023-12-22T10:24:43;96719.44;;;0.88;100.00
14295;BME280;7231;59.370;18.016;2023-12-22T10:27:15;96724.59;;;0.91;100.00
14295;BME280;7231;59.370;18.016;2023-12-22T10:29:43;96720.28;;;0.92;100.00
14295;BME280;7231;59.370;18.016;2023-12-22T10:32:11;96719.44;;;0.93;100.00
14295;BME280;7231;59.370;18.016;2023-12-22T10:34:41;96720.28;;;0.93;100.00
14295;BME280;7231;59.370;18.016;2023-12-22T10:37:09;96719.44;;;0.94;100.00
14295;BME280;7231;59.370;18.016;2023-12-22T10:39:41;96724.59;;;0.91;100.00
14295;BME280;7231;59.370;18.016;2023-12-22T10:42:09;96723.72;;;0.94;100.00
14295;BME280;7231;59.370;18.016;2023-12-22T10:44:41;96730.59;;;1.00;100.00
14295;BME280;7231;59.370;18.016;2023-12-22T10:47:09;96737.47;;;0.99;100.00
14295;BME280;7231;59.370;18.016;2023-12-22T10:49:37;96735.75;;;1.00;100.00
14295;BME280;7231;59.370;18.016;2023-12-22T10:52:06;96740.06;;;1.01;100.00
14295;BME280;7231;59.370;18.016;2023-12-22T10:54:36;96735.75;;;1.01;100.00
14295;BME280;7231;59.370;18.016;2023-12-22T10:57:05;96729.75;;;0.94;100.00
14295;BME280;7231;59.370;18.016;2023-12-22T10:59:37;96734.91;;;1.02;100.00
14295;BME280;7231;59.370;18.016;2023-12-22T11:02:17;96734.91;;;1.04;100.00
14295;BME280;7231;59.370;18.016;2023-12-22T11:04:50;96733.19;;;1.03;100.00
14295;BME280;7231;59.370;18.016;2023-12-22T11:07:23;96729.75;;;1.01;100.00
14295;BME280;7231;59.370;18.016;2023-12-22T11:09:53;96730.59;;;1.00;100.00
14295;BME280;7231;59.370;18.016;2023-12-22T11:12:26;96722.88;;;0.96;100.00
14295;BME280;7231;59.370;18.016;2023-12-22T11:14:56;96731.47;;;1.00;100.00
14295;BME280;7231;59.370;18.016;2023-12-22T11:17:26;96735.75;;;1.00;100.00
14295;BME280;7231;59.370;18.016;2023-12-22T11:19:56;96735.75;;;1.00;100.00
14295;BME280;7231;59.370;18.016;2023-12-22T11:22:25;96740.06;;;0.99;100.00
14295;BME280;7231;59.370;18.016;2023-12-22T11:24:54;96736.63;;;1.00;100.00
14295;BME280;7231;59.370;18.016;2023-12-22T11:27:25;96725.44;;;1.00;100.00
14295;BME280;7231;59.370;18.016;2023-12-22T11:29:55;96734.91;;;0.97;100.00
14295;BME280;7231;59.370;18.016;2023-12-22T11:32:24;96735.75;;;0.95;100.00
14295;BME280;7231;59.370;18.016;2023-12-22T11:34:53;96732.31;;;0.94;100.00
14295;BME280;7231;59.370;18.016;2023-12-22T11:37:22;96743.50;;;0.93;100.00
14295;BME280;7231;59.370;18.016;2023-12-22T11:39:50;96738.34;;;0.93;100.00
14295;BME280;7231;59.370;18.016;2023-12-22T11:42:22;96736.63;;;0.89;100.00
14295;BME280;7231;59.370;18.016;2023-12-22T11:44:54;96746.94;;;0.86;100.00
14295;BME280;7231;59.370;18.016;2023-12-22T11:47:22;96746.06;;;0.86;100.00
14295;BME280;7231;59.370;18.016;2023-12-22T11:49:51;96746.06;;;0.86;100.00
14295;BME280;7231;59.370;18.016;2023-12-22T11:52:26;96749.50;;;0.85;100.00
14295;BME280;7231;59.370;18.016;2023-12-22T11:54:56;96755.53;;;0.85;100.00
14295;BME280;7231;59.370;18.016;2023-12-22T11:57:35;96753.81;;;0.87;100.00
14295;BME280;7231;59.370;18.016;2023-12-22T12:00:39;96743.50;;;0.80;100.00
14295;BME280;7231;59.370;18.016;2023-12-22T12:03:07;96752.94;;;0.88;100.00
14295;BME280;7231;59.370;18.016;2023-12-22T12:05:37;96749.50;;;0.85;100.00
14295;BME280;7231;59.370;18.016;2023-12-22T12:08:06;96753.81;;;0.83;100.00
14295;BME280;7231;59.370;18.016;2023-12-22T12:10:52;96750.38;;;0.82;100.00
14295;BME280;7231;59.370;18.016;2023-12-22T12:13:23;96746.94;;;0.80;100.00
14295;BME280;7231;59.370;18.016;2023-12-22T12:15:55;96750.34;;;0.79;100.00
14295;BME280;7231;59.370;18.016;2023-12-22T12:18:23;96752.06;;;0.77;100.00
14295;BME280;7231;59.370;18.016;2023-12-22T12:20:52;96762.38;;;0.77;100.00
14295;BME280;7231;59.370;18.016;2023-12-22T12:23:23;96722.00;;;0.58;100.00
14295;BME280;7231;59.370;18.016;2023-12-22T12:25:50;96764.97;;;0.77;100.00
14295;BME280;7231;59.370;18.016;2023-12-22T12:28:25;96764.97;;;0.76;100.00
14295;BME280;7231;59.370;18.016;2023-12-22T12:30:59;96759.81;;;0.68;100.00
14295;BME280;7231;59.370;18.016;2023-12-22T12:33:28;96771.84;;;0.74;100.00
14295;BME280;7231;59.370;18.016;2023-12-22T12:35:57;96772.69;;;0.74;100.00
14295;BME280;7231;59.370;18.016;2023-12-22T12:38:36;96766.69;;;0.75;100.00
14295;BME280;7231;59.370;18.016;2023-12-22T12:41:06;96772.69;;;0.77;100.00
14295;BME280;7231;59.370;18.016;2023-12-22T12:43:35;96777.00;;;0.78;100.00
14295;BME280;7231;59.370;18.016;2023-12-22T12:46:06;96763.25;;;0.70;100.00
14295;BME280;7231;59.370;18.016;2023-12-22T12:48:34;96773.56;;;0.76;100.00
14295;BME280;7231;59.370;18.016;2023-12-22T12:51:04;96777.00;;;0.75;100.00
14295;BME280;7231;59.370;18.016;2023-12-22T12:53:32;96787.31;;;0.72;100.00
14295;BME280;7231;59.370;18.016;2023-12-22T12:56:01;96789.03;;;0.72;100.00
14295;BME280;7231;59.370;18.016;2023-12-22T12:58:29;96789.03;;;0.72;100.00
14295;BME280;7231;59.370;18.016;2023-12-22T13:01:07;96778.69;;;0.64;100.00
14295;BME280;7231;59.370;18.016;2023-12-22T13:03:54;96783.00;;;0.68;100.00
14295;BME280;7231;59.370;18.016;2023-12-22T13:06:24;96796.75;;;0.65;100.00
14295;BME280;7231;59.370;18.016;2023-12-22T13:08:52;96795.88;;;0.67;100.00
14295;BME280;7231;59.370;18.016;2023-12-22T13:11:21;96776.97;;;0.52;100.00